Aeroporto :
LOGIN :

Iscrizione | Disclaimer

   EN    FR    IT 

 










Sommario :    VFR   VFR Marginale   IFR   IFR Intensivo   IFR Molto Intensivo
Visibilità : 
Base nubi : 
>= 8 km
>= 3000ft
5 / 8 km
1000 / 3000 ft
1500m / 5 km
500 / 1000 ft
800 / 1500m
200 / 500 ft
< 800m
< 200 ft
Simboli :   Temporali  Nebbia  Neve Forte  Precipitazioni Forti  Vento > 20 kt
SIGMETs :   Varie  Temporali  Ghiacco  Turbolenza  Onda orograficha  Ceneri Vulcaniche






- Altitudine del aeroporto : 670 ft
- Codice IATA : MSQ


UMMS - Minsk - 2

ULTIMO METAR :
  • 020730Z 24008G11MPS 9999 SCT047 04/M02 Q1005 R31R/CLRD// R31L/////// NOSIG

METARs OBSOLETI :
  • 020700Z 25008G11MPS 9999 SCT046CB 04/M03 Q1005 R31R/CLRD// R31L/////// NOSIG
  • 020630Z 24006G09MPS 9999 BKN039CB 03/M02 Q1005 R31R/CLRD// R31L/////// NOSIG
  • 020600Z 25007G10MPS 9999 -SHSN BKN023CB 02/M02 Q1005 REBLSN R31R/CLRD// R31L/////// NOSIG
  • 020545Z 25006G10MPS 7000 -SHSN BLSN BKN030CB 03/M03 Q1005 R31R/CLRD// R31L/////// NOSIG
  • 020530Z 24005G09MPS 9999 BKN046 03/M04 Q1005 R31R/CLRD// R31L/////// NOSIG
  • 020500Z 22006G10MPS CAVOK 03/M04 Q1005 R31R/CLRD// R31L/////// NOSIG
  • 020430Z 23006MPS CAVOK 02/M04 Q1005 R31R/CLRD// R31L/////// NOSIG

TAF TAF UMMS
Valido dal 02 a 06 ore il 03 a 06 ore UTC


020511Z 0206/0306 25007G12MPS 9999 BKN010
TEMPO 0206/0219 24011G16MPS 2000 SHRASN BKN005 BKN015CB
TEMPO 0219/0306 24009G14MPS 1500 -SHRASN BR BKN003 BKN015CB



MetMap, La meteo Aeronautica in un colpo d'occhio ! - Copyright ORBIFLY Dicembre 2007 - Disclaimer

ORBIFLY MET'MAP TEAM :

Programmazione e sviluppo : Alexandra Zaïnal
Concezione : Baudouin d'Aumeries
Aiuto per la programmazione : Marc-Olivier Méhu
Supporto tecnico e logistico : Manuel Goepfert
Aiuto per la traduzione : Arnaldo La Scala

Contatto : metmap@orbifly.com




FONTI E CREDITI :

   NOAA